Latitude: N 50° 09' 49" Longitude: W 05° 11' 53" Elevation: 168m ASL

There are 13 visitors online

Adverts

<- Previous Day | Today | Next Day ->

All Data for 03 January 2018

Time
A - D
Temp
A - D
Dew Point
A - D
Humidity
A - D
Pressure
A - D
Wind
A - D
Wind Dir Gust
A - D
Rain Rate
A - D
Rain Total
00:01 9.9 9.8 99 998.2 28.2 SW 28.2 0.0 0.0
00:02 9.9 9.8 99 998.2 28.2 SW 28.2 0.0 0.0
00:03 9.9 9.8 99 998.2 28.2 SW 28.2 0.0 0.0
00:04 9.9 9.8 99 998.1 28.2 SW 28.2 0.0 0.0
00:06 9.8 9.7 99 998.1 28.9 SW 28.9 0.0 0.0
00:07 9.8 9.7 99 998.1 22.8 W 32.0 0.0 0.0
00:08 9.8 9.7 99 998.1 22.8 WNW 32.0 0.0 0.0
00:10 9.7 9.6 99 998.2 20.6 SW 32.0 0.0 0.0
00:11 9.7 9.6 99 998.4 25.9 SW 32.0 0.0 0.0
00:13 9.6 9.5 99 998.3 27.3 SW 32.0 0.8 0.1
00:14 9.4 9.3 99 998.1 23.5 NW 32.0 1.5 0.1
00:16 9.3 9.2 99 998.2 32.7 SW 32.7 2.3 0.3
00:17 9.2 9.1 99 998.7 28.2 SW 32.7 3.0 0.3
00:18 9.1 9.0 99 998.0 17.4 SW 32.7 3.0 0.3
00:19 9.0 8.9 99 998.2 23.5 W 32.7 2.3 0.4
00:20 8.9 8.8 99 998.2 19.7 S 32.7 3.0 0.4
00:21 8.8 8.7 99 998.3 16.8 NW 32.7 2.3 0.4
00:23 8.7 8.6 99 998.3 25.1 SW 32.7 1.5 0.4
00:24 8.7 8.6 99 998.4 22.8 W 32.7 1.5 0.4
00:25 8.5 8.4 99 998.2 28.2 S 32.7 0.8 0.5
00:26 8.5 8.4 99 998.3 23.5 SW 32.7 1.5 0.5
00:27 8.4 8.3 99 998.0 30.4 S 30.4 1.5 0.5
00:28 8.4 8.3 99 998.2 34.9 SW 34.9 0.8 0.6
00:29 8.3 8.2 99 998.1 32.7 SW 34.9 1.5 0.6
00:31 8.3 8.2 99 998.4 27.3 S 34.9 0.8 0.6
00:32 8.2 8.1 99 998.4 19.0 W 34.9 0.8 0.6
00:33 8.2 8.1 99 998.6 24.4 S 34.9 0.8 0.6
00:34 8.2 8.1 99 998.0 26.6 W 34.9 0.0 0.6
00:35 8.1 8.0 99 998.3 25.1 N 34.9 0.0 0.6
00:36 8.1 8.0 99 998.3 22.8 N 34.9 0.0 0.6
00:37 8.1 8.0 99 998.3 24.4 W 34.9 0.0 0.6
00:38 8.1 8.0 99 998.3 25.1 SW 34.9 0.0 0.6
00:39 8.1 8.0 99 998.7 19.7 SW 29.8 0.0 0.6
00:41 8.1 8.0 99 998.6 24.4 NW 28.9 0.0 0.6
00:42 8.0 7.9 99 998.6 26.6 NW 28.9 0.0 0.6
00:43 8.0 7.9 99 998.7 25.9 SW 28.9 0.0 0.6
00:44 8.0 7.9 99 998.5 19.0 NW 28.9 0.0 0.6
00:45 8.0 7.9 99 998.6 28.2 W 28.9 0.0 0.6
00:46 8.0 7.9 99 998.6 22.1 W 28.9 0.0 0.6
00:47 8.0 7.9 99 998.7 25.9 NW 28.9 0.0 0.6
00:48 8.0 7.9 99 998.7 23.5 W 28.9 0.0 0.6
00:49 8.0 7.9 99 998.6 26.6 NW 28.9 0.0 0.6
00:50 8.1 8.0 99 999.0 25.9 W 28.9 0.0 0.6
00:51 8.1 8.0 99 998.7 31.1 WNW 31.1 0.0 0.6
00:52 8.1 8.0 99 999.0 34.9 SW 34.9 0.0 0.6
00:53 8.0 7.9 99 998.7 25.1 SW 34.9 0.0 0.6
00:54 8.0 7.9 99 998.8 21.3 NNW 34.9 0.0 0.6
00:56 7.9 7.8 99 998.6 23.5 W 34.9 0.0 0.6
00:57 7.9 7.8 99 998.3 25.9 NW 34.9 0.0 0.6
00:58 7.9 7.8 99 998.5 25.9 W 34.9 0.0 0.6
00:59 7.8 7.7 99 998.7 22.1 SW 34.9 0.0 0.6
01:00 7.8 7.7 99 998.7 25.1 SW 34.9 0.0 0.6
01:01 7.8 7.7 99 998.8 25.1 SW 34.9 0.0 0.6
01:02 7.7 7.6 99 998.4 25.9 SW 34.9 0.0 0.6
01:03 7.7 7.6 99 998.6 22.1 SW 25.9 0.0 0.6
01:04 7.7 7.6 99 998.6 22.8 SW 25.9 0.0 0.6
01:05 7.7 7.6 99 998.6 22.1 W 25.9 0.0 0.6
01:06 7.6 7.5 99 998.3 21.3 W 25.9 0.0 0.6
01:07 7.6 7.5 99 998.3 23.5 SW 25.9 0.0 0.6
01:08 7.6 7.5 99 998.3 23.5 SW 25.9 0.0 0.6
01:09 7.6 7.5 99 998.7 19.0 SW 25.9 0.0 0.6
01:10 7.5 7.4 99 998.6 22.1 SW 25.9 0.0 0.6
01:12 7.5 7.4 99 998.7 18.3 SW 25.9 0.0 0.6
01:13 7.5 7.4 99 998.8 19.7 SW 24.4 0.0 0.6
01:14 7.5 7.4 99 998.7 20.6 NW 24.4 0.0 0.6
01:15 7.5 7.4 99 998.7 22.1 W 24.4 0.0 0.6
01:16 7.5 7.4 99 998.7 21.3 W 24.4 0.0 0.6
01:17 7.5 7.4 99 998.4 25.1 W 25.1 0.0 0.6
01:18 7.5 7.4 99 998.5 20.6 SW 25.1 0.0 0.6
01:19 7.5 7.4 99 998.2 28.9 SW 28.9 0.0 0.6
01:20 7.5 7.4 99 998.5 24.4 WNW 28.9 0.0 0.6
01:21 7.6 7.5 99 998.5 20.6 SW 28.9 0.0 0.6
01:22 7.6 7.5 99 998.6 15.2 SW 28.9 0.0 0.6
01:23 7.6 7.5 99 998.7 15.9 SW 28.9 0.0 0.6
01:24 7.6 7.5 99 998.6 28.2 NW 28.9 0.0 0.6
01:25 7.6 7.5 99 998.5 20.6 SW 28.9 0.0 0.6
01:26 7.6 7.5 99 998.7 19.7 SW 28.9 0.0 0.6
01:27 7.6 7.5 99 998.7 22.1 SW 28.9 0.0 0.6
01:28 7.6 7.5 99 998.7 22.1 NW 28.9 0.0 0.6
01:29 7.6 7.5 99 999.0 30.4 SW 30.4 0.0 0.6
01:31 7.7 7.6 99 998.8 20.6 SW 30.4 0.0 0.6
01:32 7.7 7.6 99 998.8 24.4 SW 30.4 0.0 0.6
01:33 7.7 7.6 99 999.0 23.5 SW 30.4 0.0 0.6
01:34 7.8 7.7 99 998.9 28.2 SW 30.4 0.0 0.6
01:35 7.8 7.7 99 998.8 23.5 W 30.4 0.0 0.6
01:36 7.8 7.7 99 998.8 27.3 N 30.4 0.0 0.6
01:37 7.8 7.7 99 998.4 30.4 S 30.4 0.0 0.6
01:38 7.9 7.8 99 998.4 25.9 SW 30.4 0.0 0.6
01:39 7.9 7.8 99 998.7 30.4 NW 30.4 0.0 0.6
01:40 7.9 7.8 99 998.5 27.3 SW 31.1 0.0 0.6
01:41 8.0 7.9 99 998.3 19.7 WNW 31.1 0.0 0.6
01:42 8.0 7.9 99 998.6 34.2 WNW 34.2 0.0 0.6
01:43 8.0 7.9 99 998.5 21.3 SW 34.2 0.0 0.6
01:44 8.0 7.9 99 998.8 18.3 W 34.2 0.0 0.6
01:45 8.0 7.9 99 998.7 25.9 SW 34.2 0.0 0.6
01:46 8.1 8.0 99 998.6 34.9 SW 34.9 0.0 0.6
01:47 8.1 8.0 99 998.5 25.9 S 34.9 0.0 0.6
01:48 8.1 8.0 99 998.4 22.1 SW 34.9 0.0 0.6
01:49 8.1 8.0 99 998.4 22.8 SW 34.9 0.0 0.6
01:51 8.1 8.0 99 998.4 37.4 WNW 37.4 0.0 0.6
01:52 8.1 8.0 99 998.6 38.7 NW 38.7 0.0 0.6
01:53 8.1 8.0 99 998.8 22.1 SW 38.7 0.0 0.6
01:54 8.1 8.0 99 998.4 37.4 SW 38.7 0.0 0.6
01:55 8.1 8.0 99 998.6 32.7 NW 38.7 0.0 0.6
01:56 8.1 8.0 99 998.6 34.2 SW 38.7 0.0 0.6
01:57 8.0 7.9 99 998.0 36.5 WNW 38.7 0.0 0.6
01:58 8.0 7.9 99 998.1 34.2 WSW 38.7 0.0 0.6
01:59 8.0 7.9 99 998.4 40.3 SW 40.3 0.0 0.6
02:00 7.9 7.8 99 998.4 32.0 S 40.3 0.0 0.6
02:01 7.8 7.7 99 998.6 25.1 SW 40.3 0.0 0.6
02:02 7.7 7.6 99 998.7 21.3 SW 40.3 0.0 0.6
02:03 7.6 7.5 99 998.5 40.3 SW 40.3 0.0 0.6
02:04 7.6 7.5 99 998.9 38.0 SW 40.3 0.0 0.6
02:06 7.6 7.5 99 998.7 32.0 SW 40.3 0.0 0.6
02:07 7.6 7.5 99 998.9 30.4 SW 40.3 0.0 0.6
02:08 7.6 7.5 99 998.6 33.6 SW 40.3 0.0 0.6
02:09 7.6 7.5 99 998.6 25.1 SW 40.3 0.0 0.6
02:11 7.6 7.5 99 998.6 25.9 SW 40.3 0.0 0.6
02:12 7.6 7.5 99 998.6 27.3 W 40.3 0.0 0.6
02:13 7.6 7.5 99 998.5 26.6 SW 40.3 0.0 0.6
02:14 7.6 7.5 99 998.7 32.0 SW 38.0 0.0 0.6
02:15 7.6 7.5 99 998.6 26.6 SW 33.6 0.0 0.6
02:16 7.6 7.5 99 998.4 24.4 SW 33.6 0.0 0.6
02:17 7.6 7.5 99 998.2 32.7 W 33.6 0.0 0.6
02:18 7.7 7.6 99 998.5 24.4 WNW 33.6 0.0 0.6
02:19 7.7 7.6 99 998.5 28.2 WNW 32.7 0.0 0.6
02:20 7.7 7.6 99 998.7 33.6 W 36.5 0.0 0.6
02:21 7.8 7.7 99 998.6 33.6 SW 36.5 0.0 0.6
02:22 7.8 7.7 99 998.7 25.9 SW 36.5 0.0 0.6
02:23 7.8 7.7 99 998.5 32.7 SW 36.5 0.0 0.6
02:24 7.9 7.8 99 998.9 38.0 SW 38.0 0.0 0.6
02:25 7.9 7.8 99 998.8 26.6 S 38.0 0.0 0.6
02:26 7.9 7.8 99 998.7 31.1 WNW 38.0 0.0 0.6
02:27 8.0 7.9 99 998.7 22.8 SW 38.0 0.0 0.6
02:28 8.0 7.9 99 998.7 28.9 W 38.0 0.0 0.6
02:30 8.1 8.0 99 998.8 31.1 SW 38.0 0.0 0.6
02:31 8.0 7.9 99 998.7 32.7 SW 38.0 0.0 0.6
02:36 8.1 7.8 98 998.7 31.1 NW 33.6 0.0 0.6
02:37 8.1 7.8 98 998.4 27.3 NW 33.6 0.0 0.6
02:38 8.1 7.7 97 998.6 28.9 SW 33.6 0.0 0.6
02:39 8.1 7.7 97 998.4 25.1 N 33.6 0.0 0.6
02:40 8.1 7.7 97 998.5 25.1 N 33.6 0.0 0.6
02:41 8.1 7.7 97 998.5 28.9 SW 33.6 0.0 0.6
02:42 8.1 7.7 97 998.5 21.3 WNW 33.6 0.0 0.6
02:44 8.1 7.5 96 998.4 36.5 SW 38.7 0.0 0.6
02:45 8.1 7.5 96 998.5 34.2 SW 38.7 0.0 0.6
02:46 8.1 7.5 96 998.6 25.1 SW 38.7 0.0 0.6
02:47 8.1 7.5 96 998.6 23.5 SW 38.7 0.0 0.6
02:48 8.0 7.4 96 998.5 23.5 W 38.7 0.0 0.6
02:49 8.0 7.4 96 998.8 26.6 WNW 38.7 0.0 0.6
02:50 8.0 7.4 96 998.8 22.1 SW 38.7 0.0 0.6
02:51 8.0 7.4 96 998.8 24.4 SW 38.7 0.0 0.6
02:52 8.0 7.4 96 998.5 26.6 NW 38.7 0.0 0.6
02:53 8.0 7.4 96 998.7 24.4 NW 38.7 0.0 0.6
02:54 8.0 7.4 96 998.9 25.9 WNW 38.0 0.0 0.6
02:55 8.0 7.4 96 998.7 28.9 SW 29.8 0.0 0.6
02:56 8.0 7.2 95 998.7 29.8 SW 29.8 0.0 0.6
02:57 8.0 7.2 95 999.1 28.9 SW 29.8 0.0 0.6
02:58 8.0 7.2 95 999.0 29.8 NW 29.8 0.0 0.6
02:59 8.0 7.2 95 999.2 29.8 N 32.0 0.0 0.6
03:00 8.0 7.2 95 999.2 29.8 N 32.0 0.0 0.6
03:01 8.0 7.2 95 999.2 29.8 N 32.0 0.0 0.6
03:02 8.0 7.2 95 999.1 23.5 SW 32.0 0.0 0.6
03:03 8.1 7.3 95 999.2 35.8 WNW 35.8 0.0 0.6
03:05 8.1 7.2 94 999.4 26.6 SW 35.8 0.0 0.6
03:06 8.1 7.2 94 999.3 38.0 SW 38.0 0.0 0.6
03:07 8.1 7.2 94 999.1 25.1 N 38.0 0.0 0.6
03:09 8.1 7.2 94 999.2 24.4 SW 38.0 0.0 0.6
03:10 8.1 7.2 94 999.4 22.1 SW 38.0 0.0 0.6
03:11 8.1 7.0 93 999.3 29.8 W 38.0 0.0 0.6
03:12 8.1 7.0 93 999.3 32.7 W 38.0 0.0 0.6
03:13 8.1 7.0 93 999.4 19.7 SW 38.0 0.0 0.6
03:14 8.1 7.0 93 999.6 29.8 SW 38.0 0.0 0.6
03:15 8.1 6.9 92 999.4 33.6 SW 38.0 0.0 0.6
03:16 8.1 6.9 92 999.5 30.4 SW 38.0 0.0 0.6
03:17 8.1 6.9 92 999.6 28.2 SW 33.6 0.0 0.6
03:18 8.1 6.9 92 999.5 34.9 W 34.9 0.0 0.6
03:19 8.1 6.9 92 999.6 32.0 SW 34.9 0.0 0.6
03:20 8.1 6.9 92 999.7 26.6 NW 34.9 0.0 0.6
03:21 8.1 6.9 92 999.7 31.1 SW 34.9 0.0 0.6
03:22 8.2 6.8 91 999.9 34.9 S 34.9 0.0 0.6
03:23 8.2 6.8 91 999.7 29.8 SW 34.9 0.0 0.6
03:24 8.3 6.9 91 999.7 33.6 W 34.9 0.0 0.6
03:25 8.3 6.9 91 999.8 27.3 SW 34.9 0.0 0.6
03:26 8.3 6.9 91 999.7 28.2 NW 34.9 0.0 0.6
03:28 8.3 6.9 91 999.9 36.5 SW 36.5 0.0 0.6
03:29 8.3 6.9 91 999.7 28.9 SW 36.5 0.0 0.6
03:30 8.3 6.9 91 999.7 32.0 SW 36.5 0.0 0.6
03:31 8.3 6.9 91 999.7 32.7 SW 36.5 0.0 0.6
03:32 8.3 6.9 91 999.1 36.5 SW 36.5 0.0 0.6
03:33 8.3 6.9 91 999.4 35.8 NW 36.5 0.0 0.6
03:34 8.3 6.9 91 999.3 32.7 W 36.5 0.0 0.6
03:35 8.3 6.9 91 999.9 30.4 SW 36.5 0.0 0.6
03:36 8.3 6.8 90 999.5 34.9 SW 36.5 0.0 0.6
03:37 8.3 6.8 90 999.5 22.1 W 36.5 0.0 0.6
03:38 8.2 6.7 90 999.7 27.3 SW 36.5 0.0 0.6
03:39 8.2 6.7 90 999.7 28.2 N 36.5 0.0 0.6
03:40 8.2 6.7 90 999.6 28.2 SW 36.5 0.0 0.6
03:41 8.1 6.6 90 999.6 26.6 S 36.5 0.0 0.6
03:42 8.1 6.6 90 999.4 24.4 N 36.5 0.0 0.6
03:43 8.1 6.6 90 999.3 40.3 SW 40.3 0.0 0.6
03:44 8.0 6.5 90 999.5 31.1 SW 40.3 0.0 0.6
03:45 8.0 6.5 90 999.7 31.1 SW 40.3 0.0 0.6
03:46 8.0 6.5 90 999.6 23.5 SW 40.3 0.0 0.6
03:47 8.0 6.5 90 999.8 27.3 SW 40.3 0.0 0.6
03:49 8.0 6.5 90 999.6 30.4 SW 40.3 0.0 0.6
03:50 7.9 6.4 90 999.4 28.2 SW 40.3 0.0 0.6
03:51 7.9 6.4 90 999.5 26.6 SW 40.3 0.0 0.6
03:52 7.9 6.4 90 999.3 28.9 WNW 40.3 0.0 0.6
03:53 7.9 6.5 91 999.6 27.3 SW 40.3 0.0 0.6
03:54 7.9 6.5 91 999.6 31.1 SW 31.1 0.0 0.6
03:55 7.9 6.5 91 999.6 31.1 SW 31.1 0.0 0.6
03:56 7.9 6.5 91 999.6 31.1 NW 31.1 0.0 0.6
03:57 7.9 6.5 91 999.8 31.1 NW 31.1 0.0 0.6
03:58 7.9 6.5 91 999.7 32.0 NNW 32.0 0.0 0.6
03:59 7.9 6.5 91 1000.0 22.1 SW 32.0 0.0 0.6
04:00 7.9 6.5 91 1000.0 22.1 SW 32.0 0.0 0.6
04:01 7.9 6.5 91 1000.0 22.1 SW 32.0 0.0 0.6
04:02 7.9 6.5 91 999.9 22.1 SW 32.0 0.0 0.6
04:03 7.9 6.5 91 1000.0 26.6 NW 32.0 0.0 0.6
04:04 7.9 6.5 91 999.8 21.3 W 32.0 0.0 0.6
04:05 7.9 6.5 91 999.9 27.3 W 32.0 0.0 0.6
04:07 7.9 6.5 91 1000.3 28.2 NW 32.0 0.0 0.6
04:08 7.9 6.5 91 999.9 27.3 SW 28.2 0.0 0.6
04:10 8.0 6.6 91 1000.0 20.6 SW 28.2 0.0 0.6
04:11 8.0 6.6 91 999.9 30.4 WNW 30.4 0.0 0.6
04:12 8.0 6.6 91 1000.1 34.9 W 34.9 0.0 0.6
04:13 8.1 6.7 91 1000.0 30.4 W 35.8 0.0 0.6
04:14 8.1 6.7 91 1000.2 30.4 W 35.8 0.0 0.6
04:15 8.1 6.7 91 1000.0 32.7 SW 35.8 0.0 0.6
04:16 8.1 6.7 91 1000.1 35.8 NW 35.8 0.0 0.6
04:17 8.2 6.8 91 999.9 31.1 NW 35.8 0.0 0.6
04:18 8.2 6.8 91 1000.3 32.7 SW 35.8 0.0 0.6
04:19 8.2 6.8 91 1000.5 31.1 NW 35.8 0.0 0.6
04:20 8.2 6.7 90 999.9 33.6 NW 35.8 0.0 0.6
04:21 8.2 6.7 90 1000.4 23.5 NW 35.8 0.0 0.6
04:22 8.2 6.7 90 1000.5 35.8 W 35.8 0.0 0.6
04:23 8.2 6.7 90 1000.3 35.8 W 35.8 0.0 0.6
04:24 8.2 6.5 89 1000.6 41.8 WNW 41.8 0.0 0.6
04:25 8.2 6.5 89 1000.4 38.0 S 41.8 0.0 0.6
04:26 8.3 6.6 89 1000.5 38.0 W 41.8 0.0 0.6
04:27 8.3 6.6 89 1000.5 31.1 SW 41.8 0.0 0.6
04:29 8.2 6.5 89 1000.6 22.8 WNW 41.8 0.0 0.6
04:30 8.3 6.4 88 1000.5 28.2 SW 41.8 0.0 0.6
04:31 8.3 6.4 88 1000.6 22.1 SW 41.8 0.0 0.6
04:32 8.2 6.3 88 1000.6 20.6 SW 41.8 0.0 0.6
04:33 8.2 6.3 88 1000.7 20.6 SW 41.8 0.0 0.6
04:34 8.2 6.3 88 1000.9 32.0 SW 41.8 0.0 0.6
04:35 8.2 6.3 88 1000.9 36.5 SW 38.0 0.0 0.6
04:36 8.2 6.3 88 1000.7 35.8 WNW 38.0 0.0 0.6
04:37 8.2 6.3 88 1000.8 28.2 SW 36.5 0.0 0.6
04:38 8.2 6.3 88 1000.9 37.4 SW 37.4 0.0 0.6
04:39 8.2 6.3 88 1000.9 27.3 SW 37.4 0.0 0.6
04:40 8.2 6.2 87 1000.9 24.4 SW 37.4 0.0 0.6
04:42 8.2 6.2 87 1001.1 24.4 SW 37.4 0.0 0.6
04:43 8.2 6.3 88 1001.3 28.9 SW 37.4 0.0 0.6
04:44 8.2 6.2 87 1001.1 28.2 SW 37.4 0.0 0.6
04:45 8.2 6.3 88 1001.2 25.1 W 37.4 0.0 0.6
04:46 8.2 6.3 88 1001.2 34.9 SW 37.4 0.0 0.6
04:47 8.2 6.3 88 1001.1 27.3 W 37.4 0.0 0.6
04:48 8.2 6.3 88 1001.0 37.4 SW 37.4 0.0 0.6
04:49 8.2 6.3 88 1000.8 32.0 SW 37.4 0.0 0.6
04:50 8.2 6.3 88 1001.6 27.3 W 37.4 0.0 0.6
04:51 8.2 6.3 88 1001.1 28.2 NW 37.4 0.0 0.6
04:52 8.3 6.4 88 1001.3 29.8 NW 37.4 0.0 0.6
04:53 8.3 6.4 88 1001.3 37.4 SW 37.4 0.0 0.6
04:54 8.3 6.4 88 1000.7 35.8 SW 37.4 0.0 0.6
04:55 8.3 6.4 88 1001.3 32.0 NW 37.4 0.0 0.6
04:56 8.4 6.5 88 1001.3 33.6 N 37.4 0.0 0.6
04:57 8.4 6.5 88 1001.4 28.9 NW 37.4 0.0 0.6
04:58 8.4 6.5 88 1000.9 25.9 NW 37.4 0.0 0.6
04:59 8.5 6.6 88 1001.2 28.9 SW 37.4 0.0 0.6
05:00 8.5 6.6 88 1001.2 28.9 SW 37.4 0.0 0.6
05:02 8.4 6.5 88 1001.5 39.6 SW 39.6 0.0 0.6
05:03 8.4 6.5 88 1001.4 39.6 NW 39.6 0.0 0.6
05:04 8.5 6.6 88 1001.4 35.8 SW 39.6 0.0 0.6
05:05 8.5 6.6 88 1001.4 27.3 SW 39.6 0.0 0.6
05:06 8.5 6.6 88 1001.5 30.4 SW 39.6 0.0 0.6
05:08 8.5 6.6 88 1001.5 20.6 SW 39.6 0.0 0.6
05:09 8.5 6.6 88 1001.6 38.7 SW 39.6 0.0 0.6
05:11 8.5 6.6 88 1001.1 27.3 SW 39.6 0.0 0.6
05:12 8.5 6.6 88 1001.6 25.1 SW 39.6 0.0 0.6
05:13 8.5 6.6 88 1001.5 22.1 W 38.7 0.0 0.6
05:14 8.4 6.5 88 1001.3 28.2 WNW 38.7 0.0 0.6
05:15 8.5 6.5 87 1001.6 28.9 SW 38.7 0.0 0.6
05:16 8.4 6.4 87 1001.3 34.9 SW 38.7 0.0 0.6
05:17 8.4 6.4 87 1001.4 38.0 S 38.7 0.0 0.6
05:18 8.4 6.4 87 1001.8 34.2 SW 38.7 0.0 0.6
05:19 8.3 6.3 87 1001.3 30.4 SW 38.7 0.0 0.6
05:20 8.4 6.4 87 1001.5 29.8 W 38.7 0.0 0.6
05:21 8.3 6.3 87 1001.7 32.0 SW 38.0 0.0 0.6
05:22 8.3 6.3 87 1002.0 26.6 SW 38.0 0.0 0.6
05:23 8.3 6.3 87 1001.7 22.8 SW 38.0 0.0 0.6
05:24 8.3 6.3 87 1001.4 30.4 S 38.0 0.0 0.6
05:25 8.3 6.3 87 1001.2 30.4 W 38.0 0.0 0.6
05:26 8.3 6.3 87 1001.8 35.8 SW 38.0 0.0 0.6
05:27 8.3 6.3 87 1001.9 23.5 NW 35.8 0.0 0.6
05:28 8.3 6.3 87 1001.8 28.9 SW 35.8 0.0 0.6
05:29 8.2 6.2 87 1001.9 32.0 W 35.8 0.0 0.6
05:30 8.3 6.3 87 1001.7 32.7 SW 35.8 0.0 0.6
05:31 8.3 6.3 87 1001.8 30.4 SW 35.8 0.0 0.6
05:32 8.3 6.3 87 1001.8 26.6 N 35.8 0.0 0.6
05:33 8.3 6.3 87 1002.0 28.9 SW 35.8 0.0 0.6
05:35 8.3 6.3 87 1002.0 28.2 SW 35.8 0.0 0.6
05:36 8.3 6.3 87 1001.9 33.6 NW 35.8 0.0 0.6
05:37 8.3 6.3 87 1001.9 30.4 W 33.6 0.0 0.6
05:38 8.3 6.3 87 1001.8 32.7 W 33.6 0.0 0.6
05:39 8.3 6.3 87 1001.9 27.3 W 33.6 0.0 0.6
05:40 8.3 6.3 87 1001.9 25.9 W 33.6 0.0 0.6
05:41 8.3 6.3 87 1002.0 26.6 W 33.6 0.0 0.6
05:42 8.3 6.3 87 1001.7 24.4 SW 33.6 0.0 0.6
05:43 8.3 6.3 87 1001.9 25.9 SW 33.6 0.0 0.6
05:44 8.3 6.3 87 1002.2 28.2 SW 33.6 0.0 0.6
05:45 8.3 6.3 87 1002.1 25.9 W 33.6 0.0 0.6
05:46 8.3 6.3 87 1002.2 31.1 SW 32.7 0.0 0.6
05:47 8.3 6.3 87 1002.1 23.5 NW 32.7 0.0 0.6
05:48 8.3 6.3 87 1002.0 25.9 SW 31.1 0.0 0.6
05:49 8.4 6.4 87 1001.9 31.1 WNW 31.1 0.0 0.6
05:50 8.3 6.3 87 1001.8 28.2 NW 31.1 0.0 0.6
05:51 8.4 6.4 87 1002.3 22.8 SW 31.1 0.0 0.6
05:52 8.4 6.4 87 1002.3 32.0 W 32.0 0.0 0.6
05:53 8.4 6.4 87 1002.2 24.4 SW 32.0 0.0 0.6
05:54 8.4 6.4 87 1002.0 34.9 SW 34.9 0.0 0.6
05:55 8.4 6.4 87 1002.5 28.9 N 34.9 0.0 0.6
05:57 8.5 6.5 87 1002.2 30.4 SW 34.9 0.0 0.6
05:58 8.4 6.4 87 1002.2 28.2 NNW 34.9 0.0 0.6
05:59 8.5 6.5 87 1002.6 24.4 SW 34.9 0.0 0.6
06:00 8.5 6.5 87 1002.2 24.4 SW 34.9 0.0 0.6
06:01 8.5 6.5 87 1002.6 24.4 SW 34.9 0.0 0.6
06:02 8.5 6.5 87 1002.6 26.6 SW 34.9 0.0 0.6
06:03 8.5 6.5 87 1002.7 29.8 NW 34.9 0.0 0.6
06:04 8.5 6.5 87 1002.6 31.1 NW 34.9 0.0 0.6
06:05 8.5 6.5 87 1002.7 26.6 SW 31.1 0.0 0.6
06:07 8.6 6.6 87 1002.8 22.8 SW 31.1 0.0 0.6
06:08 8.6 6.6 87 1002.9 26.6 NW 38.0 0.0 0.6
06:10 8.6 6.6 87 1002.6 32.7 SW 38.0 0.0 0.6
06:11 8.6 6.6 87 1002.8 25.9 SW 38.0 0.0 0.6
06:12 8.6 6.6 87 1002.6 32.7 SW 38.0 0.0 0.6
06:13 8.6 6.6 87 1002.6 25.9 N 38.0 0.0 0.6
06:14 8.6 6.6 87 1002.7 26.6 WNW 38.0 0.0 0.6
06:15 8.6 6.6 87 1002.8 21.3 W 38.0 0.0 0.6
06:16 8.6 6.6 87 1002.7 20.6 NW 38.0 0.0 0.6
06:17 8.6 6.6 87 1002.7 40.3 SW 40.3 0.0 0.6
06:18 8.6 6.6 87 1002.9 33.6 SW 40.3 0.0 0.6
06:19 8.7 6.7 87 1002.9 25.1 SE 40.3 0.0 0.6
06:21 8.6 6.6 87 1002.7 27.3 SW 40.3 0.0 0.6
06:22 8.6 6.6 87 1002.7 26.6 SW 40.3 0.0 0.6
06:23 8.6 6.6 87 1002.8 34.2 SW 40.3 0.0 0.6
06:24 8.6 6.6 87 1002.9 29.8 W 40.3 0.0 0.6
06:25 8.6 6.4 86 1002.6 38.7 NW 44.1 0.0 0.6
06:26 8.6 6.4 86 1002.8 39.6 SW 44.1 0.0 0.6
06:27 8.6 6.2 85 1002.8 32.0 SW 44.1 0.0 0.6
06:28 8.6 6.2 85 1002.8 27.3 SW 44.1 0.0 0.6
06:29 8.6 6.2 85 1002.9 23.5 SW 44.1 0.0 0.6
06:30 8.6 6.4 86 1002.8 25.1 SW 44.1 0.0 0.6
06:31 8.6 6.2 85 1003.0 22.1 S 44.1 0.0 0.6
06:32 8.6 6.4 86 1002.9 34.2 SW 44.1 0.0 0.6
06:33 8.6 6.4 86 1003.1 29.8 SW 44.1 0.0 0.6
06:34 8.6 6.4 86 1003.0 28.2 NW 44.1 0.0 0.6
06:35 8.6 6.4 86 1003.0 29.8 S 39.6 0.0 0.6
06:36 8.6 6.4 86 1003.0 34.9 S 34.9 0.0 0.6
06:37 8.6 6.2 85 1002.8 29.8 S 34.9 0.0 0.6
06:39 8.6 6.2 85 1002.9 26.6 N 34.9 0.0 0.6
06:40 8.6 6.4 86 1003.2 28.9 SW 34.9 0.0 0.6
06:41 8.6 6.4 86 1003.0 22.1 W 34.9 0.0 0.6
06:42 8.6 6.4 86 1002.9 28.2 WNW 34.9 0.0 0.6
06:43 8.6 6.4 86 1003.3 24.4 NW 34.9 0.0 0.6
06:45 8.6 6.4 86 1003.2 25.1 SW 34.9 0.0 0.6
06:46 8.6 6.4 86 1003.5 25.1 W 34.9 0.0 0.6
06:47 8.6 6.4 86 1003.3 30.4 NW 31.1 0.0 0.6
06:48 8.6 6.6 87 1003.1 33.6 N 33.6 0.0 0.6
06:49 8.6 6.6 87 1003.2 25.1 SW 33.6 0.0 0.6
06:50 8.6 6.6 87 1003.3 25.9 SW 33.6 0.0 0.6
06:51 8.7 6.7 87 1003.1 28.2 NW 33.6 0.0 0.6
06:53 8.7 6.7 87 1003.2 28.2 SW 33.6 0.0 0.6
06:54 8.7 6.5 86 1003.2 30.4 W 33.6 0.0 0.6
06:55 8.7 6.5 86 1003.4 22.1 NW 33.6 0.0 0.6
06:56 8.7 6.7 87 1003.4 25.1 SW 33.6 0.0 0.6
06:57 8.7 6.5 86 1003.4 33.6 NW 33.6 0.0 0.6
06:59 8.7 6.5 86 1003.5 30.4 SW 36.5 0.0 0.6
07:00 8.7 6.5 86 1003.6 32.7 SW 36.5 0.0 0.6
07:01 8.7 6.5 86 1003.7 32.7 SW 36.5 0.0 0.6
07:02 8.8 6.4 85 1003.4 31.1 SW 36.5 0.0 0.6
07:03 8.8 6.2 84 1003.7 39.6 W 39.6 0.0 0.6
07:04 8.8 6.2 84 1003.9 35.8 WNW 39.6 0.0 0.6
07:05 8.8 6.2 84 1003.4 29.8 NW 39.6 0.0 0.6
07:07 8.8 6.2 84 1003.7 28.9 SW 39.6 0.0 0.6
07:08 8.8 6.2 84 1003.6 24.4 SW 39.6 0.0 0.6
07:10 8.8 6.2 84 1003.7 30.4 SW 39.6 0.0 0.6
07:12 8.7 6.1 84 1003.9 34.2 SW 39.6 0.0 0.6
07:14 8.7 6.1 84 1003.8 30.4 SW 35.8 0.0 0.6
07:15 8.7 6.1 84 1004.0 28.9 SW 34.2 0.0 0.6
07:17 8.7 6.1 84 1003.9 22.8 SW 34.2 0.0 0.6
07:19 8.7 6.1 84 1004.1 23.5 SW 34.2 0.0 0.6
07:21 8.7 6.1 84 1004.0 19.7 W 34.2 0.0 0.6
07:22 8.6 6.1 84 1004.0 20.6 W 34.2 0.0 0.6
07:23 8.6 6.1 84 1003.9 25.9 NW 32.0 0.0 0.6
07:24 8.6 6.2 85 1004.0 28.9 SW 32.0 0.0 0.6
07:25 8.6 6.2 85 1004.0 22.1 SW 32.0 0.0 0.6
07:26 8.6 6.2 85 1004.0 32.0 NW 32.0 0.0 0.6
07:28 8.6 6.2 85 1004.1 28.2 SW 32.0 0.0 0.6
07:29 8.6 6.2 85 1004.1 28.2 SW 32.0 0.0 0.6
07:30 8.6 6.2 85 1004.2 26.6 SW 32.0 0.0 0.6
07:31 8.6 6.2 85 1004.2 27.3 NNW 32.0 0.0 0.6
07:32 8.6 6.2 85 1004.2 27.3 W 32.0 0.0 0.6
07:34 8.6 6.2 85 1004.0 30.4 SW 32.0 0.0 0.6
07:35 8.6 6.2 85 1004.2 31.1 WNW 32.0 0.0 0.6
07:36 8.6 6.2 85 1004.0 25.1 SW 32.0 0.0 0.6
07:37 8.6 6.2 85 1004.2 25.9 SW 31.1 0.0 0.6
07:38 8.7 6.3 85 1004.4 22.8 SW 31.1 0.0 0.6
07:39 8.6 6.2 85 1004.3 26.6 SW 31.1 0.0 0.6
07:41 8.6 6.2 85 1004.2 28.2 SW 34.2 0.0 0.6
07:42 8.6 6.2 85 1004.6 24.4 SW 34.2 0.0 0.6
07:43 8.6 6.2 85 1004.5 25.9 NW 34.2 0.0 0.6
07:44 8.6 6.2 85 1004.8 27.3 SW 34.2 0.0 0.6
07:45 8.6 6.2 85 1004.7 32.0 SW 36.5 0.0 0.6
07:46 8.6 6.2 85 1004.7 27.3 SW 36.5 0.0 0.6
07:48 8.6 6.2 85 1004.7 25.9 NW 36.5 0.0 0.6
07:49 8.6 6.2 85 1004.5 24.4 W 36.5 0.0 0.6
07:50 8.6 6.2 85 1004.6 28.2 SW 36.5 0.0 0.6
07:51 8.6 6.2 85 1004.7 25.9 SW 36.5 0.0 0.6
07:52 8.6 6.2 85 1004.4 26.6 SW 36.5 0.0 0.6
07:53 8.6 6.2 85 1004.7 34.2 SW 36.5 0.0 0.6
07:54 8.7 6.3 85 1004.6 26.6 NW 36.5 0.0 0.6
07:56 8.6 6.2 85 1004.7 21.3 SW 34.2 0.0 0.6
07:57 8.7 6.3 85 1004.7 19.7 SW 34.2 0.0 0.6
07:58 8.6 6.2 85 1004.8 21.3 SW 34.2 0.0 0.6
07:59 8.6 6.2 85 1004.7 19.0 SW 34.2 0.0 0.6
08:00 8.6 6.2 85 1004.9 19.0 SW 34.2 0.0 0.6
08:01 8.6 6.2 85 1004.7 19.0 SW 34.2 0.0 0.6
08:02 8.6 6.2 85 1004.8 19.7 W 34.2 0.0 0.6
08:03 8.6 6.2 85 1004.6 29.8 SW 29.8 0.0 0.6
08:04 8.6 6.2 85 1004.7 29.8 SW 29.8 0.0 0.6
08:05 8.6 6.2 85 1004.8 32.0 SW 32.0 0.0 0.6
08:07 8.6 6.2 85 1004.8 37.4 SW 37.4 0.0 0.6
08:08 8.6 6.2 85 1004.8 28.2 W 37.4 0.0 0.6
08:09 8.6 6.2 85 1005.1 24.4 SW 37.4 0.0 0.6
08:11 8.6 6.2 85 1005.0 28.2 NNW 37.4 0.0 0.6
08:12 8.5 6.1 85 1005.3 20.6 SW 37.4 0.0 0.6
08:14 8.5 6.1 85 1005.0 33.6 WNW 37.4 0.0 0.6
08:16 8.5 6.1 85 1005.0 29.8 SW 37.4 0.0 0.6
08:17 8.5 6.1 85 1005.3 23.5 W 36.5 0.0 0.6
08:19 8.5 6.1 85 1005.4 25.1 SW 36.5 0.0 0.6
08:20 8.5 6.1 85 1005.4 25.9 SW 36.5 0.0 0.6
08:23 8.4 6.0 85 1005.5 20.6 SW 36.5 0.0 0.6
08:24 8.4 6.2 86 1005.4 27.3 SW 35.8 0.0 0.6
08:26 8.4 6.2 86 1005.5 22.8 W 28.2 0.0 0.6
08:27 8.4 6.2 86 1005.6 31.1 SW 31.1 0.0 0.6
08:28 8.5 6.3 86 1005.5 22.1 SW 31.1 0.0 0.6
08:29 8.5 6.3 86 1005.5 23.5 SW 31.1 0.0 0.6
08:31 8.5 6.3 86 1005.8 27.3 SW 31.1 0.0 0.6
08:32 8.5 6.3 86 1005.5 26.6 SW 31.1 0.0 0.6
08:33 8.5 6.3 86 1005.6 26.6 W 32.7 0.0 0.6
08:34 8.5 6.3 86 1005.7 24.4 W 32.7 0.0 0.6
08:36 8.6 6.4 86 1005.7 21.3 W 32.7 0.0 0.6
08:37 8.6 6.4 86 1005.7 22.8 S 33.6 0.0 0.6
08:38 8.6 6.6 87 1005.5 32.7 WNW 33.6 0.0 0.6
08:40 8.6 6.6 87 1005.7 32.0 W 33.6 0.0 0.6
08:41 8.6 6.6 87 1005.7 18.3 NW 33.6 0.0 0.6
08:42 8.7 6.7 87 1005.7 25.1 NNW 33.6 0.0 0.6
08:44 8.7 6.7 87 1005.7 33.6 SW 33.6 0.0 0.6
08:45 8.7 6.7 87 1005.5 24.4 SW 33.6 0.0 0.6
08:46 8.7 6.7 87 1005.5 19.7 SW 33.6 0.0 0.6
08:48 8.7 6.7 87 1005.7 19.7 W 33.6 0.0 0.6
08:49 8.7 6.7 87 1005.4 25.1 NW 33.6 0.0 0.6
08:50 8.8 6.8 87 1005.7 31.1 NW 33.6 0.0 0.6
08:52 8.8 6.8 87 1005.9 20.6 SW 33.6 0.0 0.6
08:53 8.8 6.8 87 1005.9 34.9 SW 34.9 0.0 0.6
08:54 8.8 6.8 87 1005.7 34.2 SW 34.9 0.0 0.6
08:55 8.9 6.9 87 1005.9 23.5 SW 34.9 0.0 0.6
08:57 8.9 6.9 87 1006.1 22.1 SW 34.9 0.0 0.6
08:58 8.9 6.9 87 1005.8 27.3 SW 34.9 0.0 0.6
08:59 8.9 6.7 86 1005.9 29.8 SW 34.9 0.0 0.6
09:01 8.9 6.7 86 1005.9 29.8 SW 34.9 0.0 0.6
09:02 8.9 6.7 86 1005.7 26.6 SW 34.9 0.0 0.6
09:03 8.9 6.9 87 1005.8 25.9 SW 34.2 0.0 0.6
09:05 9.0 7.0 87 1005.9 26.6 SW 30.4 0.0 0.6
09:06 8.9 6.9 87 1005.9 24.4 W 30.4 0.0 0.6
09:08 8.9 6.9 87 1005.8 24.4 NW 30.4 0.0 0.6
09:10 9.0 6.8 86 1006.0 28.2 SW 29.8 0.0 0.6
09:12 9.0 6.8 86 1005.9 27.3 N 28.2 0.0 0.6
09:13 9.0 6.8 86 1005.8 24.4 SW 28.2 0.0 0.6
09:15 9.0 6.8 86 1005.8 22.1 SW 28.2 0.0 0.6
09:17 8.9 6.7 86 1006.0 22.1 SW 28.2 0.0 0.6
09:18 9.0 6.8 86 1005.9 29.8 SW 29.8 0.0 0.6
09:20 9.0 6.8 86 1005.9 28.9 SW 29.8 0.0 0.6
09:21 9.0 6.8 86 1006.0 25.1 W 29.8 0.0 0.6
09:23 8.9 6.7 86 1006.0 21.3 S 29.8 0.0 0.6
09:25 9.0 6.8 86 1006.0 34.2 W 34.2 0.0 0.6
09:26 9.0 6.8 86 1006.1 28.9 SW 34.2 0.0 0.6
09:28 9.0 6.8 86 1006.3 27.3 S 34.2 0.0 0.6
09:29 9.0 6.8 86 1006.3 27.3 SW 34.2 0.0 0.6
09:30 9.0 7.0 87 1006.4 24.4 NW 34.2 0.0 0.6
09:32 9.0 7.0 87 1006.2 22.8 W 34.2 0.0 0.6
09:33 9.0 7.0 87 1006.2 24.4 SW 34.2 0.0 0.6
09:34 8.9 6.9 87 1006.3 34.9 SW 34.9 0.0 0.6
09:36 8.9 6.9 87 1006.0 27.3 S 34.9 0.0 0.6
09:37 8.9 6.9 87 1006.2 25.1 SW 34.9 0.0 0.6
09:39 8.9 6.9 87 1006.3 19.0 NNW 34.9 0.0 0.6
09:41 8.9 6.9 87 1006.3 19.0 SW 34.9 0.0 0.6
09:42 8.9 7.0 88 1006.2 20.6 SW 34.9 0.0 0.6
09:43 8.9 7.0 88 1006.3 22.1 SW 34.9 0.0 0.6
09:45 8.9 7.0 88 1006.2 21.3 SW 30.4 0.0 0.6
09:46 8.9 7.0 88 1006.3 22.1 SW 30.4 0.0 0.6
09:47 9.0 7.1 88 1006.2 25.1 SW 30.4 0.0 0.6
09:49 9.0 7.1 88 1006.3 19.7 S 30.4 0.0 0.6
09:50 9.0 7.1 88 1006.3 30.4 SW 30.4 0.0 0.6
09:52 9.0 7.1 88 1006.6 24.4 NW 30.4 0.0 0.6
09:53 9.0 7.1 88 1006.4 21.3 SW 30.4 0.0 0.6
09:54 9.0 7.1 88 1006.4 25.1 W 30.4 0.0 0.6
09:56 9.0 7.1 88 1006.6 23.5 SW 30.4 0.0 0.6
09:57 9.1 7.2 88 1006.7 22.8 SW 30.4 0.0 0.6
09:58 9.1 7.2 88 1006.8 25.1 S 31.1 0.0 0.6
09:59 9.1 7.1 87 1006.7 27.3 SW 31.1 0.0 0.6
10:01 9.1 7.1 87 1006.8 27.3 SW 31.1 0.0 0.6
10:02 9.1 6.9 86 1006.4 34.9 SW 34.9 0.0 0.6
10:04 9.1 6.9 86 1007.2 25.9 NW 34.9 0.0 0.6
10:05 9.1 6.9 86 1007.1 24.4 W 34.9 0.0 0.6
10:06 9.1 6.7 85 1006.9 27.3 W 34.9 0.0 0.6
10:08 9.2 6.8 85 1006.9 25.9 SW 34.9 0.0 0.6
10:10 9.2 6.8 85 1006.9 30.4 SW 34.9 0.0 0.6
10:11 9.2 6.8 85 1007.0 27.3 S 34.9 0.0 0.6
10:13 9.2 6.8 85 1007.1 19.7 SW 34.2 0.0 0.6
10:14 9.2 6.8 85 1007.1 25.9 NW 30.4 0.0 0.6
10:16 9.2 6.8 85 1007.3 30.4 SW 31.1 0.0 0.6
10:18 9.3 6.9 85 1007.3 29.8 SW 31.1 0.0 0.6
10:19 9.3 6.9 85 1007.2 20.6 W 35.8 0.0 0.6
10:21 9.3 6.9 85 1007.4 15.2 SW 35.8 0.0 0.6
10:22 9.4 7.0 85 1007.1 27.3 SW 35.8 0.0 0.6
10:24 9.4 7.2 86 1007.2 22.1 WNW 35.8 0.0 0.6
10:25 9.4 7.2 86 1007.3 23.5 SW 35.8 0.0 0.6
10:26 9.4 7.2 86 1007.1 32.0 S 35.8 0.0 0.6
10:28 9.5 7.3 86 1007.3 16.8 W 35.8 0.0 0.6
10:29 9.5 7.3 86 1006.9 21.3 W 32.0 0.0 0.6
10:31 9.5 7.3 86 1007.3 28.9 NW 32.0 0.0 0.6
10:32 9.5 7.3 86 1007.2 25.1 NW 32.0 0.0 0.6
10:33 9.5 7.3 86 1007.2 22.1 N 32.0 0.0 0.6
10:35 9.5 7.3 86 1007.2 25.1 W 32.0 0.0 0.6
10:36 9.5 7.1 85 1007.2 22.8 SW 32.0 0.0 0.6
10:37 9.5 7.1 85 1007.3 25.9 S 28.9 0.0 0.6
10:38 9.5 7.1 85 1007.4 20.6 SW 28.9 0.0 0.6
10:39 9.5 7.1 85 1007.2 18.3 W 28.9 0.0 0.6
10:41 9.5 7.3 86 1007.5 23.5 SW 28.9 0.0 0.6
10:42 9.5 7.3 86 1007.4 25.9 NW 25.9 0.0 0.6
10:43 9.5 7.3 86 1007.4 23.5 W 25.9 0.0 0.6
10:44 9.5 7.3 86 1007.6 22.1 NW 25.9 0.0 0.6
10:46 9.5 7.3 86 1007.7 23.5 SW 25.9 0.0 0.6
10:47 9.5 7.3 86 1007.6 22.1 SW 28.2 0.0 0.6
10:48 9.6 7.4 86 1007.7 25.1 SW 28.2 0.0 0.6
10:49 9.6 7.4 86 1007.7 24.4 SW 28.2 0.0 0.6
10:51 9.5 7.3 86 1007.7 28.2 SW 28.2 0.0 0.6
10:52 9.5 7.3 86 1007.6 25.9 W 28.2 0.0 0.6
10:54 9.6 7.4 86 1007.6 23.5 SW 28.2 0.0 0.6
10:55 9.6 7.4 86 1007.6 18.3 SW 31.1 0.0 0.6
10:57 9.6 7.5 87 1007.6 20.6 N 31.1 0.0 0.6
10:58 9.7 7.6 87 1007.7 28.2 SW 31.1 0.0 0.6
10:59 9.7 7.6 87 1007.6 23.5 SW 31.1 0.0 0.6
11:01 9.7 7.6 87 1007.6 23.5 SW 31.1 0.0 0.6
11:02 9.8 7.7 87 1007.6 26.6 SW 31.1 0.0 0.6
11:03 9.8 7.7 87 1007.5 25.9 SW 31.1 0.0 0.6
11:04 9.8 7.7 87 1007.8 22.8 SW 31.1 0.0 0.6
11:05 9.8 7.7 87 1007.9 24.4 SW 29.8 0.0 0.6
11:07 9.8 7.7 87 1007.8 19.7 SW 29.8 0.0 0.6
11:09 9.8 7.7 87 1008.1 17.4 SW 29.8 3.0 0.9
11:11 9.5 7.6 88 1008.0 25.9 WNW 29.8 6.0 1.1
11:12 9.4 7.5 88 1008.2 19.7 W 29.8 6.8 1.1
11:14 9.2 7.3 88 1008.0 24.4 WNW 29.8 3.8 1.1
11:16 8.8 7.1 89 1008.1 20.6 SW 25.9 0.8 1.1
11:17 8.6 6.9 89 1008.0 17.4 S 25.9 0.0 1.1
11:19 8.4 6.9 90 1008.2 20.6 W 25.9 0.0 1.1
11:21 8.3 6.8 90 1008.0 22.8 WNW 25.9 0.0 1.1
11:22 8.2 6.8 91 1008.0 19.0 NW 25.1 0.0 1.1
11:24 8.1 6.7 91 1008.1 27.3 SW 29.8 0.8 1.2
11:25 8.0 6.6 91 1008.1 26.6 SW 29.8 0.8 1.2
11:26 8.0 6.8 92 1008.2 23.5 W 29.8 0.8 1.2
11:28 7.9 6.7 92 1008.1 24.4 SW 29.8 0.8 1.2
11:29 7.9 6.7 92 1008.1 26.6 SW 29.8 0.0 1.2
11:30 7.8 6.6 92 1008.1 19.7 SW 29.8 0.0 1.2
11:32 7.7 6.5 92 1008.0 27.3 NW 29.8 0.0 1.2
11:33 7.7 6.6 93 1007.8 21.3 SW 27.3 0.0 1.2
11:35 7.7 6.6 93 1008.1 18.3 W 27.3 0.0 1.2
11:36 7.7 6.6 93 1007.9 19.0 SW 27.3 0.0 1.2
11:38 7.7 6.6 93 1007.8 23.5 SW 27.3 0.0 1.2
11:39 7.7 6.6 93 1007.9 19.7 WNW 27.3 0.0 1.2
11:41 7.7 6.6 93 1007.9 21.3 SW 27.3 0.0 1.2
11:42 7.8 6.9 94 1008.1 25.1 SW 25.1 0.0 1.2
11:44 7.8 6.9 94 1008.1 19.7 W 25.1 0.0 1.2
11:45 7.9 7.0 94 1008.1 31.1 SW 31.1 0.0 1.2
11:47 7.9 7.0 94 1007.8 24.4 SW 31.1 0.0 1.2
11:48 8.0 7.1 94 1008.1 16.8 SW 31.1 0.0 1.2
11:50 8.1 7.2 94 1008.1 16.8 SW 31.1 0.0 1.2
11:51 8.2 7.3 94 1008.1 20.6 NNW 31.1 0.0 1.2
11:52 8.3 7.4 94 1008.0 29.8 SW 31.1 0.0 1.2
11:54 8.4 7.5 94 1007.8 24.4 W 31.1 0.0 1.2
11:55 8.5 7.6 94 1007.8 19.7 SW 31.1 0.0 1.2
11:56 8.6 7.8 95 1007.7 21.3 SW 29.8 0.0 1.2
11:57 8.7 7.9 95 1008.1 19.0 W 29.8 0.0 1.2
11:59 8.8 8.0 95 1008.1 22.1 SW 29.8 0.0 1.2
12:01 8.9 8.1 95 1008.0 22.8 NW 29.8 0.0 1.2
12:02 9.0 8.2 95 1008.0 23.5 SW 29.8 0.0 1.2
12:03 9.0 8.2 95 1008.0 21.3 NNW 26.6 0.0 1.2
12:04 9.0 8.2 95 1007.9 19.0 W 25.1 0.0 1.2
12:05 9.1 8.3 95 1007.7 19.0 W 25.1 0.0 1.2
12:07 9.1 8.3 95 1007.9 22.1 SW 25.1 0.0 1.2
12:08 9.1 8.3 95 1008.0 19.7 SW 25.1 0.0 1.2
12:10 9.1 8.3 95 1007.8 16.8 SW 25.1 0.0 1.2
12:12 9.1 8.3 95 1008.0 15.9 S 25.1 0.0 1.2
12:13 9.1 8.3 95 1007.8 27.3 SW 27.3 0.0 1.2
12:15 9.1 8.3 95 1007.9 24.4 NW 27.3 0.0 1.2
12:16 9.2 8.4 95 1007.9 22.1 SW 27.3 0.0 1.2
12:18 9.2 8.4 95 1007.6 28.9 W 34.9 0.0 1.2
12:20 9.3 8.5 95 1007.8 23.5 N 34.9 0.0 1.2
12:22 9.4 8.6 95 1007.9 24.4 WSW 34.9 0.0 1.2
12:24 9.5 8.7 95 1007.8 26.6 SW 34.9 0.0 1.2
12:27 9.5 8.7 95 1007.7 20.6 SW 34.9 0.0 1.2
12:28 9.5 8.7 95 1007.7 19.7 SW 28.9 0.0 1.2
12:29 9.6 8.8 95 1007.6 25.1 SW 28.2 0.0 1.2
12:30 9.6 8.8 95 1007.7 28.2 S 28.2 0.0 1.2
12:32 9.6 8.7 94 1007.6 21.3 NW 28.2 0.0 1.2
12:33 9.6 8.7 94 1007.7 28.2 SW 28.2 0.0 1.2
12:35 9.6 8.7 94 1007.8 30.4 SW 30.4 0.0 1.2
12:36 9.7 8.8 94 1007.8 19.0 SW 30.4 0.0 1.2
12:38 9.7 8.8 94 1007.9 19.7 SW 30.4 0.0 1.2
12:39 9.8 8.7 93 1007.7 29.8 WNW 30.4 0.0 1.2
12:41 9.8 8.7 93 1007.8 31.1 W 31.1 0.0 1.2
12:42 9.8 8.7 93 1007.6 28.9 N 31.1 0.0 1.2
12:45 9.8 8.6 92 1007.7 31.1 SW 31.1 0.0 1.2
12:47 9.7 8.5 92 1007.7 31.1 SW 31.1 0.0 1.2
12:49 9.7 8.5 92 1007.7 26.6 SW 33.6 0.0 1.2
12:51 9.7 8.3 91 1007.7 25.1 SW 33.6 0.0 1.2
12:54 9.7 8.3 91 1007.6 26.6 NW 33.6 0.0 1.2
12:56 9.7 8.3 91 1007.9 24.4 N 33.6 0.0 1.2
12:58 9.8 8.4 91 1007.7 23.5 SW 30.4 0.0 1.2
13:00 9.8 8.4 91 1007.6 27.3 NW 30.4 0.0 1.2
13:03 9.9 8.3 90 1007.8 19.0 SW 30.4 0.0 1.2
13:05 10.0 8.4 90 1008.0 22.1 SW 30.4 0.0 1.2
13:07 10.0 8.4 90 1007.7 27.3 SW 30.4 0.0 1.2
13:09 10.0 8.4 90 1007.5 27.3 W 30.4 0.0 1.2
13:10 10.1 8.5 90 1007.9 22.1 NW 30.4 0.0 1.2
13:12 10.1 8.5 90 1007.8 20.6 W 30.4 0.0 1.2
13:13 10.1 8.4 89 1008.0 20.6 SW 29.8 0.0 1.2
13:15 10.0 8.3 89 1007.9 26.6 NNE 28.9 0.0 1.2
13:16 10.0 8.3 89 1007.9 22.1 WNW 28.9 0.0 1.2
13:18 10.0 8.3 89 1007.7 22.1 W 28.9 0.0 1.2
13:20 9.9 8.2 89 1008.0 15.9 SW 28.9 0.0 1.2
13:22 9.9 8.2 89 1007.9 17.4 NW 28.9 0.0 1.2
13:23 9.8 8.1 89 1008.0 28.9 SW 28.9 0.0 1.2
13:25 9.8 8.1 89 1008.1 24.4 SW 28.9 0.0 1.2
13:26 9.7 8.0 89 1008.1 22.8 SW 28.9 0.0 1.2
13:27 9.8 8.2 90 1008.1 23.5 SW 28.9 0.0 1.2
13:29 9.7 8.1 90 1007.9 15.2 WNW 28.9 0.0 1.2
13:30 9.7 8.1 90 1008.0 29.8 SW 29.8 0.0 1.2
13:32 9.7 8.1 90 1007.8 19.0 SW 29.8 0.0 1.2
13:33 9.7 8.1 90 1007.9 20.6 SW 29.8 0.0 1.2
13:34 9.7 8.1 90 1007.8 20.6 SW 29.8 0.0 1.2
13:35 9.7 8.1 90 1007.7 18.3 SW 29.8 0.0 1.2
13:37 9.7 8.1 90 1007.7 14.5 W 29.8 0.0 1.2
13:38 9.7 8.1 90 1007.7 19.7 SW 29.8 0.0 1.2
13:39 9.8 8.4 91 1007.9 21.3 W 29.8 0.0 1.2
13:41 9.8 8.4 91 1007.7 19.0 SW 23.5 0.0 1.2
13:42 9.8 8.4 91 1007.8 14.5 SW 23.5 0.0 1.2
13:43 9.8 8.4 91 1007.7 16.8 SW 23.5 0.0 1.2
13:45 9.9 8.5 91 1007.7 15.9 W 22.8 0.0 1.2
13:46 9.9 8.5 91 1007.8 19.0 SW 21.3 0.0 1.2
13:48 9.9 8.5 91 1007.8 24.4 SW 24.4 0.0 1.2
13:50 10.0 8.8 92 1007.7 19.7 SW 24.4 0.0 1.2
13:51 10.0 8.6 91 1007.6 24.4 SW 25.9 0.0 1.2
13:52 10.0 8.6 91 1007.7 22.8 SW 25.9 0.0 1.2
13:54 10.0 8.6 91 1007.8 21.3 W 25.9 0.0 1.2
13:55 10.0 8.8 92 1007.7 26.6 SW 26.6 0.0 1.2
13:56 10.0 8.8 92 1007.8 22.8 S 26.6 0.0 1.2
13:58 10.1 8.9 92 1007.6 22.1 WNW 26.6 0.0 1.2
13:59 10.1 8.9 92 1007.6 25.1 SW 26.6 0.0 1.2
14:00 10.1 8.9 92 1007.6 25.1 SW 26.6 0.0 1.2
14:02 10.3 9.1 92 1007.5 24.4 SW 26.6 0.0 1.2
14:03 10.3 9.1 92 1007.7 25.9 SW 26.6 0.0 1.2
14:04 10.3 9.1 92 1007.7 24.4 S 26.6 0.0 1.2
14:06 10.3 8.9 91 1007.8 20.6 SW 25.9 0.0 1.2
14:07 10.3 8.9 91 1007.8 22.8 WNW 25.9 0.0 1.2
14:09 10.3 8.9 91 1007.8 18.3 SW 25.9 0.0 1.2
14:10 10.3 8.9 91 1007.8 25.1 SW 25.9 0.0 1.2
14:12 10.4 9.0 91 1007.8 22.8 NW 25.9 0.0 1.2
14:14 10.4 9.0 91 1007.8 19.0 W 25.1 0.0 1.2
14:16 10.4 9.0 91 1008.0 18.3 S 25.1 0.0 1.2
14:18 10.4 9.0 91 1007.9 20.6 SW 25.1 0.0 1.2
14:19 10.4 9.0 91 1007.9 21.3 SW 25.1 0.0 1.2
14:20 10.4 9.0 91 1008.0 19.7 SW 25.1 0.0 1.2
14:22 10.3 8.9 91 1007.8 25.1 SW 25.1 0.0 1.2
14:24 10.3 8.9 91 1007.7 15.2 SW 25.1 0.0 1.2
14:25 10.2 8.8 91 1007.8 21.3 SW 25.1 0.0 1.2
14:26 10.2 8.8 91 1007.6 20.6 SW 25.1 0.0 1.2
14:28 10.2 8.8 91 1007.8 22.8 S 25.1 0.0 1.2
14:29 10.1 8.9 92 1007.8 19.7 SW 25.1 0.0 1.2
14:31 10.1 8.9 92 1007.8 22.8 NNW 25.1 0.0 1.2
14:32 10.1 8.9 92 1007.7 25.1 SW 26.6 0.0 1.2
14:34 10.0 8.8 92 1007.7 18.3 NW 26.6 0.0 1.2
14:35 10.0 8.8 92 1007.7 16.8 SW 26.6 0.0 1.2
14:37 10.0 8.8 92 1007.5 22.8 NNW 26.6 0.0 1.2
14:38 10.0 8.8 92 1007.7 23.5 SW 26.6 0.0 1.2
14:39 9.9 8.7 92 1007.7 24.4 S 26.6 0.0 1.2
14:41 9.9 8.7 92 1007.7 22.1 W 26.6 0.0 1.2
14:42 9.9 8.7 92 1007.6 15.9 W 25.1 0.0 1.2
14:43 9.9 8.7 92 1007.3 19.0 SW 24.4 0.0 1.2
14:44 9.9 8.7 92 1007.7 26.6 SW 26.6 0.0 1.2
14:46 9.9 8.8 93 1007.7 19.7 SW 26.6 0.0 1.2
14:47 9.9 8.8 93 1007.8 21.3 SW 26.6 0.0 1.2
14:49 9.9 8.8 93 1007.5 22.1 SW 26.6 0.0 1.2
14:50 9.9 8.8 93 1007.7 18.3 NW 26.6 0.0 1.2
14:51 9.9 8.8 93 1007.8 15.9 SW 26.6 0.0 1.2
14:53 9.9 8.8 93 1007.7 25.1 W 26.6 0.0 1.2
14:54 9.9 8.8 93 1007.8 20.6 SW 26.6 0.0 1.2
14:55 9.9 8.8 93 1007.9 21.3 SW 25.1 0.0 1.2
14:57 9.9 8.8 93 1007.8 25.9 W 25.9 0.0 1.2
14:58 9.9 8.8 93 1007.8 20.6 NW 28.2 0.0 1.2
15:00 9.9 8.8 93 1007.8 22.8 SW 28.2 0.0 1.2
15:01 9.9 8.8 93 1007.9 22.8 SW 28.2 0.0 1.2
15:02 9.9 8.8 93 1008.0 24.4 WNW 28.2 0.0 1.2
15:04 9.9 8.7 92 1007.8 24.4 SW 28.2 0.0 1.2
15:05 9.9 8.7 92 1007.8 20.6 SW 28.2 0.0 1.2
15:06 9.9 8.7 92 1007.6 16.8 SW 28.2 0.0 1.2
15:08 9.9 8.7 92 1007.7 19.0 W 24.4 0.0 1.2
15:10 9.8 8.6 92 1007.6 19.0 W 24.4 0.0 1.2
15:11 9.8 8.6 92 1007.7 21.3 S 24.4 0.0 1.2
15:13 9.8 8.6 92 1007.8 24.4 SW 24.4 0.0 1.2
15:15 9.8 8.7 93 1007.8 25.1 SW 25.1 0.0 1.2
15:16 9.8 8.7 93 1008.0 21.3 NNW 25.1 0.0 1.2
15:18 9.7 8.6 93 1008.0 15.2 S 25.1 0.0 1.2
15:21 9.7 8.6 93 1008.0 19.0 SW 25.1 0.0 1.2
15:22 9.7 8.6 93 1007.8 22.8 S 25.1 0.0 1.2
15:24 9.7 8.6 93 1008.0 21.3 SW 25.1 0.0 1.2
15:25 9.7 8.6 93 1007.9 17.4 SW 25.1 0.0 1.2
15:26 9.7 8.6 93 1008.0 24.4 SW 24.4 0.0 1.2
15:27 9.7 8.6 93 1008.2 19.0 SW 24.4 0.0 1.2
15:29 9.7 8.6 93 1008.1 26.6 NNW 28.2 0.0 1.2
15:30 9.7 8.6 93 1008.4 25.9 SW 28.2 0.0 1.2
15:32 9.7 8.5 92 1008.2 17.4 W 28.2 0.0 1.2
15:33 9.7 8.5 92 1008.0 18.3 SW 28.2 0.0 1.2
15:34 9.7 8.5 92 1007.9 19.0 SW 28.2 0.0 1.2
15:35 9.7 8.5 92 1008.0 12.1 W 28.2 0.0 1.2
15:36 9.7 8.5 92 1007.9 17.4 W 28.2 0.0 1.2
15:38 9.7 8.5 92 1007.8 20.6 SW 26.6 0.0 1.2
15:39 9.7 8.5 92 1007.9 18.3 NW 25.9 0.0 1.2
15:40 9.7 8.5 92 1008.1 17.4 NW 22.1 0.0 1.2
15:41 9.7 8.5 92 1008.2 21.3 NW 21.3 0.0 1.2
15:43 9.6 8.4 92 1008.1 19.0 SW 21.3 0.0 1.2
15:44 9.6 8.4 92 1008.0 13.6 W 21.3 0.0 1.2
15:45 9.6 8.4 92 1007.8 19.7 SW 21.3 0.0 1.2
15:47 9.6 8.4 92 1007.8 19.0 SW 22.8 0.0 1.2
15:48 9.6 8.4 92 1007.7 28.9 S 28.9 0.0 1.2
15:49 9.6 8.4 92 1007.8 18.3 S 28.9 0.0 1.2
15:50 9.6 8.4 92 1007.8 16.8 SW 28.9 0.0 1.2
15:51 9.6 8.4 92 1007.8 19.0 SW 28.9 0.0 1.2
15:52 9.6 8.4 92 1007.9 13.0 SW 28.9 0.0 1.2
15:53 9.6 8.4 92 1007.8 13.6 S 28.9 0.0 1.2
15:54 9.6 8.4 92 1007.9 16.8 SW 28.9 0.0 1.2
15:56 9.6 8.4 92 1007.8 14.5 W 28.9 0.0 1.2
15:57 9.6 8.4 92 1007.7 15.2 SW 28.9 0.0 1.2
15:58 9.6 8.4 92 1007.9 19.0 S 22.1 0.0 1.2
15:59 9.6 8.4 92 1007.8 17.4 SW 22.1 0.0 1.2
16:00 9.6 8.4 92 1007.8 26.6 SW 26.6 0.0 1.2
16:02 9.6 8.4 92 1007.7 19.0 W 26.6 0.0 1.2
16:03 9.6 8.4 92 1007.9 17.4 W 26.6 0.0 1.2
16:04 9.6 8.4 92 1007.8 26.6 SW 26.6 0.0 1.2
16:05 9.6 8.4 92 1007.8 18.3 SW 26.6 0.0 1.2
16:06 9.6 8.4 92 1008.0 14.5 W 26.6 0.0 1.2
16:07 9.6 8.4 92 1007.9 18.3 NW 26.6 0.0 1.2
16:09 9.6 8.4 92 1007.8 16.8 SW 26.6 0.0 1.2
16:11 9.6 8.4 92 1008.0 16.8 W 26.6 0.0 1.2
16:12 9.6 8.4 92 1008.0 14.5 WNW 26.6 0.0 1.2
16:14 9.6 8.4 92 1007.7 15.9 W 24.4 0.0 1.2
16:15 9.6 8.4 92 1007.8 17.4 S 24.4 0.0 1.2
16:17 9.6 8.4 92 1007.7 20.6 W 24.4 0.0 1.2
16:18 9.6 8.5 93 1007.7 15.9 S 24.4 0.0 1.2
16:20 9.6 8.5 93 1007.5 16.8 SW 23.5 0.0 1.2
16:21 9.6 8.5 93 1007.6 15.2 S 23.5 0.0 1.2
16:22 9.6 8.5 93 1007.7 18.3 SW 23.5 0.0 1.2
16:23 9.6 8.5 93 1007.6 14.5 SW 23.5 0.0 1.2
16:24 9.6 8.5 93 1007.6 21.3 NW 23.5 0.0 1.2
16:25 9.6 8.5 93 1007.7 15.9 NNE 23.5 0.0 1.2
16:26 9.6 8.5 93 1007.5 15.2 SW 23.5 0.0 1.2
16:27 9.6 8.5 93 1007.5 19.0 SW 21.3 0.0 1.2
16:29 9.6 8.5 93 1007.5 19.0 SW 23.5 0.0 1.2
16:30 9.6 8.5 93 1007.5 14.5 SW 23.5 0.0 1.2
16:31 9.6 8.5 93 1007.5 15.2 S 23.5 0.0 1.2
16:32 9.6 8.5 93 1007.4 17.4 SW 23.5 0.0 1.2
16:34 9.6 8.5 93 1007.4 20.6 W 23.5 0.0 1.2
16:35 9.6 8.5 93 1007.4 19.7 SW 23.5 0.0 1.2
16:36 9.7 8.6 93 1007.6 16.8 SW 23.5 0.0 1.2
16:38 9.6 8.5 93 1007.6 22.8 SW 25.9 0.0 1.2
16:40 9.6 8.4 92 1007.5 21.3 WNW 25.9 0.0 1.2
16:41 9.6 8.4 92 1007.7 17.4 SW 25.9 0.0 1.2
16:42 9.6 8.4 92 1007.4 12.1 SW 25.9 0.0 1.2
16:43 9.6 8.4 92 1007.6 15.2 W 25.9 0.0 1.2
16:44 9.6 8.2 91 1007.5 16.8 W 25.9 0.0 1.2
16:46 9.6 8.2 91 1007.6 18.3 W 25.9 0.0 1.2
16:47 9.6 8.2 91 1007.7 22.8 SW 25.9 0.0 1.2
16:49 9.5 8.1 91 1007.6 17.4 S 22.8 0.0 1.2
16:51 9.5 8.1 91 1007.3 22.1 SW 25.9 0.0 1.2
16:53 9.5 8.1 91 1007.4 15.9 W 25.9 0.0 1.2
16:54 9.4 7.8 90 1007.2 25.1 SW 25.9 0.0 1.2
16:56 9.4 7.8 90 1007.0 25.1 SW 25.9 0.0 1.2
16:57 9.4 7.8 90 1007.2 25.1 SW 25.9 0.0 1.2
16:58 9.3 7.7 90 1007.4 16.8 SW 25.9 0.0 1.2
16:59 9.3 7.7 90 1007.3 17.4 SW 25.9 0.0 1.2
17:00 9.3 7.7 90 1007.4 16.8 SW 25.1 0.0 1.2
17:02 9.2 7.6 90 1007.2 20.6 W 25.1 0.8 1.3
17:04 9.2 7.5 89 1007.2 15.9 SW 25.1 0.8 1.3
17:05 9.0 7.3 89 1007.1 19.7 SW 25.1 0.8 1.3
17:06 9.0 7.3 89 1007.1 20.6 N 25.1 0.8 1.3
17:08 9.0 7.3 89 1007.1 17.4 W 21.3 0.0 1.3
17:09 8.9 7.2 89 1007.1 21.3 S 26.6 0.0 1.3
17:11 8.8 7.1 89 1007.1 14.5 NW 26.6 0.8 1.3
17:12 8.7 7.0 89 1007.1 17.4 W 26.6 0.8 1.4
17:15 8.6 6.9 89 1006.9 18.3 SW 26.6 1.5 1.4
17:16 8.5 6.8 89 1006.8 14.5 SW 26.6 1.5 1.4
17:18 8.4 6.7 89 1007.1 15.2 SW 26.6 0.8 1.5
17:20 8.4 6.7 89 1007.1 12.1 W 19.7 0.8 1.5
17:21 8.3 6.6 89 1007.0 14.5 W 19.0 1.5 1.6
17:22 8.3 6.6 89 1006.9 16.8 SW 19.0 1.5 1.6
17:24 8.2 6.5 89 1007.1 12.1 SW 19.0 0.8 1.6
17:25 8.1 6.4 89 1006.9 13.6 SW 19.0 1.5 1.6
17:26 8.1 6.6 90 1007.1 13.6 SW 19.0 0.8 1.6
17:27 8.0 6.5 90 1007.1 12.1 SW 19.0 1.5 1.7
17:28 8.0 6.5 90 1007.2 13.0 SW 16.8 1.5 1.7
17:30 7.9 6.4 90 1007.2 10.7 SW 16.8 0.8 1.8
17:31 7.9 6.4 90 1007.1 13.0 W 16.8 1.5 1.8
17:32 7.9 6.4 90 1007.2 16.8 W 16.8 0.8 1.8
17:33 7.8 6.4 91 1007.0 11.4 W 16.8 0.8 1.8
17:34 7.8 6.4 91 1007.2 14.5 SW 16.8 0.8 1.8
17:35 7.8 6.4 91 1007.2 15.2 W 16.8 0.8 1.8
17:36 7.8 6.4 91 1007.2 13.6 W 16.8 0.8 1.8
17:37 7.7 6.3 91 1007.2 14.5 W 16.8 0.8 1.8
17:39 7.7 6.5 92 1007.1 12.1 W 16.8 0.8 1.8
17:40 7.7 6.5 92 1007.1 15.2 W 16.8 0.8 1.8
17:41 7.7 6.5 92 1007.1 13.0 SW 16.8 0.8 1.9
17:42 7.6 6.4 92 1006.9 13.6 SW 15.2 0.8 1.9
17:43 7.6 6.5 93 1006.8 12.1 W 15.2 1.5 2.0
17:44 7.6 6.5 93 1006.6 11.4 W 15.2 1.5 2.0
17:45 7.6 6.5 93 1006.7 13.0 SW 15.2 2.3 2.0
17:47 7.6 6.5 93 1006.7 11.4 SW 15.2 2.3 2.1
17:48 7.5 6.4 93 1006.4 11.4 W 15.2 1.5 2.1
17:49 7.5 6.4 93 1006.7 13.0 SW 15.2 2.3 2.1
17:50 7.5 6.6 94 1006.5 11.4 SW 15.2 2.3 2.2
17:51 7.5 6.6 94 1006.4 13.0 SW 15.2 2.3 2.3
17:52 7.5 6.6 94 1006.5 14.5 SW 15.2 2.3 2.3
17:53 7.5 6.6 94 1006.6 9.8 SW 14.5 2.3 2.3
17:55 7.5 6.6 94 1006.5 11.4 W 14.5 1.5 2.3
17:56 7.4 6.7 95 1006.6 14.5 SW 14.5 1.5 2.3
17:57 7.4 6.7 95 1006.4 12.1 WNW 14.5 1.5 2.4
17:58 7.4 6.7 95 1006.4 10.7 W 14.5 1.5 2.5
18:00 7.4 6.7 95 1006.6 13.0 WNW 14.5 1.5 2.5
18:01 7.4 6.7 95 1006.5 13.0 WNW 14.5 1.5 2.5
18:02 7.4 6.8 96 1006.7 9.2 WNW 14.5 2.3 2.6
18:03 7.4 6.8 96 1006.7 9.8 W 14.5 2.3 2.6
18:05 7.4 6.8 96 1006.5 7.6 W 14.5 1.5 2.6
18:06 7.4 7.0 97 1006.6 9.2 SW 13.6 1.5 2.6
18:08 7.4 7.0 97 1006.7 9.2 N 13.6 0.0 2.6
18:10 7.3 6.9 97 1006.7 9.2 S 13.0 0.8 2.6
18:12 7.3 6.9 97 1006.7 9.2 W 12.1 1.5 2.7
18:13 7.3 6.9 97 1006.7 9.8 W 12.1 1.5 2.7
18:15 7.3 7.0 98 1006.7 11.4 W 12.1 0.8 2.7
18:17 7.3 7.0 98 1006.6 9.2 W 12.1 0.0 2.7
18:20 7.3 7.0 98 1006.4 7.6 W 12.1 0.0 2.7
18:22 7.3 7.0 98 1006.6 9.8 N 12.1 0.8 2.8
18:23 7.3 7.2 99 1006.5 4.5 N 12.1 0.8 2.8
18:25 7.3 7.2 99 1006.5 5.4 WSW 12.1 1.5 2.8
18:26 7.3 7.2 99 1006.3 6.9 N 9.8 0.8 2.8
18:27 7.3 7.2 99 1006.4 6.9 N 9.8 0.8 2.8
18:28 7.3 7.2 99 1006.3 6.9 WSW 9.8 0.8 2.8
18:29 7.3 7.2 99 1006.4 6.0 WSW 9.8 0.8 2.8
18:30 7.3 7.2 99 1006.3 6.9 N 9.8 0.0 2.8
18:31 7.3 7.2 99 1006.2 5.4 W 9.8 0.0 2.8
18:33 7.3 7.2 99 1006.2 6.9 W 9.2 0.8 2.9
18:34 7.3 7.2 99 1006.2 5.4 W 9.2 0.8 2.9
18:35 7.3 7.2 99 1006.1 5.4 WSW 9.2 0.8 2.9
18:36 7.3 7.2 99 1006.0 5.4 WSW 9.2 0.8 2.9
18:37 7.3 7.2 99 1006.1 4.5 W 9.2 1.5 3.0
18:38 7.3 7.2 99 1006.1 6.9 WSW 9.2 0.8 3.0
18:39 7.3 7.2 99 1006.3 6.0 WSW 9.2 0.8 3.0
18:40 7.3 7.2 99 1006.1 4.5 WSW 8.3 0.8 3.0
18:42 7.3 7.2 99 1006.1 5.4 WSW 8.3 0.8 3.0
18:43 7.3 7.2 99 1006.1 6.0 WSW 8.3 0.8 3.0
18:44 7.3 7.2 99 1006.1 4.5 WSW 6.9 0.8 3.0
18:45 7.3 7.2 99 1006.1 6.9 W 6.9 1.5 3.1
18:46 7.3 7.2 99 1006.0 6.0 WSW 6.9 1.5 3.1
18:47 7.3 7.2 99 1006.0 6.9 WSW 6.9 0.8 3.1
18:48 7.3 7.2 99 1006.0 5.4 WSW 6.9 0.8 3.1
18:49 7.3 7.2 99 1005.8 7.6 WSW 7.6 0.8 3.1
18:50 7.3 7.2 99 1005.9 5.4 WSW 7.6 0.0 3.1
18:51 7.3 7.2 99 1005.9 4.5 WSW 7.6 0.8 3.1
18:53 7.3 7.2 99 1005.9 6.0 W 7.6 0.8 3.1
18:54 7.3 7.2 99 1005.8 3.8 WSW 7.6 1.5 3.2
18:55 7.3 7.2 99 1005.8 5.4 WSW 7.6 1.5 3.2
18:56 7.3 7.2 99 1005.8 3.8 WSW 7.6 0.8 3.2
18:58 7.3 7.2 99 1005.9 4.5 WSW 7.6 1.5 3.3
18:59 7.3 7.2 99 1005.8 6.0 WSW 7.6 0.8 3.3
19:00 7.3 7.2 99 1005.8 3.8 WSW 6.9 0.8 3.3
19:01 7.3 7.2 99 1005.9 3.8 WSW 6.9 0.8 3.3
19:02 7.3 7.2 99 1005.8 3.8 WSW 6.9 0.8 3.3
19:03 7.3 7.2 99 1005.9 3.8 WSW 6.0 0.0 3.3
19:04 7.3 7.2 99 1005.8 3.8 WSW 6.0 0.0 3.3
19:05 7.3 7.2 99 1005.8 3.8 WSW 6.0 0.0 3.3
19:07 7.3 7.2 99 1005.8 5.4 WSW 6.0 0.8 3.3
19:08 7.3 7.2 99 1005.7 6.0 S 6.0 0.8 3.3
19:09 7.3 7.2 99 1005.6 4.5 WSW 6.0 1.5 3.4
19:11 7.3 7.2 99 1005.7 3.8 WSW 6.0 1.5 3.5
19:12 7.3 7.2 99 1005.6 3.8 WSW 6.0 1.5 3.5
19:14 7.3 7.2 99 1005.6 3.8 WSW 6.0 0.8 3.5
19:16 7.3 7.2 99 1005.4 4.5 WSW 6.0 0.0 3.5
19:18 7.3 7.2 99 1005.3 4.5 WSW 5.4 0.0 3.5
19:20 7.3 7.2 99 1005.2 3.8 S 5.4 0.8 3.5
19:21 7.3 7.2 99 1005.2 3.8 S 5.4 0.8 3.5
19:23 7.3 7.2 99 1005.2 5.4 S 5.4 0.8 3.5
19:25 7.3 7.2 99 1005.0 3.8 SE 5.4 0.8 3.6
19:26 7.4 7.3 99 1005.0 3.8 S 5.4 0.8 3.6
19:27 7.4 7.3 99 1005.1 3.8 S 5.4 0.8 3.6
19:29 7.4 7.3 99 1005.0 3.1 WSW 5.4 0.8 3.6
19:31 7.4 7.3 99 1004.9 5.4 WSW 5.4 0.8 3.7
19:32 7.4 7.3 99 1005.1 3.8 WSW 5.4 0.8 3.7
19:34 7.5 7.4 99 1005.1 3.8 WSW 5.4 1.5 3.7
19:35 7.5 7.4 99 1005.1 3.1 WSW 5.4 1.5 3.7
19:37 7.5 7.4 99 1005.0 5.4 WSW 5.4 0.8 3.7
19:38 7.6 7.5 99 1005.0 4.5 S 5.4 0.0 3.7
19:40 7.6 7.5 99 1005.0 4.5 WSW 5.4 0.0 3.7
19:41 7.6 7.5 99 1005.0 3.8 WSW 5.4 0.8 3.8
19:42 7.7 7.6 99 1004.9 3.8 WSW 5.4 0.8 3.8
19:44 7.7 7.6 99 1004.9 5.4 WSW 5.4 0.8 3.8
19:45 7.7 7.6 99 1004.9 5.4 WSW 5.4 1.5 3.8
19:47 7.7 7.6 99 1004.7 4.5 WSW 5.4 0.8 3.8
19:49 7.8 7.7 99 1004.7 5.4 WSW 5.4 0.8 3.8
19:50 7.8 7.7 99 1004.7 5.4 WSW 5.4 0.0 3.8
19:52 7.8 7.7 99 1004.9 6.0 WSW 6.0 0.0 3.8
19:53 7.9 7.8 99 1004.8 4.5 WSW 6.0 0.0 3.8
19:55 7.9 7.8 99 1004.7 4.5 WSW 6.0 0.8 3.9
19:56 7.9 7.8 99 1004.7 4.5 W 6.0 0.8 3.9
19:58 7.9 7.8 99 1004.8 5.4 W 6.0 1.5 4.0
20:00 7.9 7.8 99 1004.7 5.4 W 6.0 0.8 4.0
20:02 7.9 7.8 99 1004.7 5.4 W 6.0 0.8 4.0
20:03 7.9 7.8 99 1004.7 5.4 W 5.4 0.0 4.0
20:05 7.9 7.8 99 1004.7 5.4 W 5.4 0.0 4.0
20:06 7.9 7.8 99 1004.7 5.4 WSW 5.4 0.0 4.0
20:08 7.9 7.8 99 1004.7 4.5 WSW 5.4 0.8 4.0
20:10 7.9 7.8 99 1004.5 3.8 WSW 5.4 0.8 4.0
20:11 7.8 7.7 99 1004.6 3.8 WSW 5.4 0.8 4.0
20:13 7.9 7.8 99 1004.5 4.5 WSW 5.4 0.0 4.0
20:15 7.9 7.8 99 1004.4 5.4 W 6.0 0.0 4.0
20:17 7.9 7.8 99 1004.4 4.5 W 6.0 0.0 4.0
20:19 7.8 7.7 99 1004.5 3.8 WSW 6.0 0.8 4.1
20:20 7.8 7.7 99 1004.4 3.1 WSW 6.0 0.8 4.1
20:22 7.8 7.7 99 1004.4 3.8 WSW 6.0 0.8 4.1
20:24 7.9 7.8 99 1004.3 2.2 WSW 6.0 0.0 4.1
20:25 7.8 7.7 99 1004.3 3.8 WSW 5.4 0.0 4.1
20:27 7.8 7.7 99 1004.2 3.1 WSW 4.5 0.8 4.2
20:29 7.8 7.7 99 1004.3 2.2 WSW 3.8 0.8 4.2
20:30 7.8 7.7 99 1004.2 2.2 WSW 3.8 0.8 4.2
20:32 7.8 7.7 99 1004.2 2.2 WSW 3.8 0.0 4.2
20:33 7.8 7.7 99 1004.1 1.6 WSW 3.8 0.0 4.2
20:35 7.8 7.7 99 1004.0 2.2 WSW 3.8 0.8 4.2
20:36 7.8 7.7 99 1004.1 1.6 WSW 3.8 0.8 4.2
20:37 7.8 7.7 99 1004.1 0.7 WSW 3.1 0.8 4.2
20:39 7.8 7.7 99 1003.9 1.6 WSW 2.2 0.8 4.2
20:40 7.8 7.7 99 1004.0 2.2 WSW 2.2 0.0 4.2
20:42 7.8 7.7 99 1004.0 1.6 WSW 2.2 0.0 4.2
20:43 7.8 7.7 99 1003.9 1.6 WSW 2.2 0.0 4.2
20:45 7.8 7.7 99 1004.1 1.6 WSW 2.2 0.0 4.2
20:46 7.8 7.7 99 1003.9 1.6 WSW 2.2 0.0 4.2
20:47 7.8 7.7 99 1003.7 0.7 WSW 2.2 0.0 4.2
20:48 7.8 7.7 99 1003.7 1.6 WSW 2.2 0.0 4.2
20:50 7.8 7.7 99 1003.7 1.6 WSW 2.2 0.0 4.2
20:51 7.8 7.7 99 1003.7 1.6 WSW 1.6 0.0 4.2
20:52 7.8 7.7 99 1003.7 1.6 WSW 2.2 0.0 4.3
20:54 7.8 7.7 99 1003.8 1.6 WSW 2.2 0.8 4.3
20:57 7.8 7.7 99 1003.7 0.7 WSW 2.2 0.8 4.3
20:58 7.9 7.8 99 1003.7 1.6 WSW 2.2 0.0 4.3
20:59 7.8 7.7 99 1003.7 1.6 WSW 2.2 0.0 4.3
21:00 7.8 7.7 99 1003.7 1.6 WSW 2.2 0.0 4.3
21:02 7.8 7.7 99 1003.7 1.6 WSW 1.6 0.0 4.3
21:05 7.8 7.7 99 1003.7 1.6 WSW 1.6 0.0 4.3
21:06 7.9 7.8 99 1003.7 1.6 WSW 1.6 0.8 4.3
21:07 7.9 7.8 99 1003.7 1.6 WSW 1.6 0.8 4.3
21:09 7.8 7.7 99 1003.7 1.6 WSW 1.6 0.8 4.3
21:10 7.9 7.8 99 1003.9 0.7 WSW 1.6 0.8 4.3
21:12 7.9 7.8 99 1003.8 1.6 WSW 1.6 0.0 4.3
21:14 7.8 7.7 99 1003.7 0.7 WSW 1.6 0.8 4.4
21:15 7.9 7.8 99 1003.7 1.6 WSW 1.6 0.8 4.4
21:17 7.9 7.8 99 1003.7 1.6 WSW 1.6 0.8 4.4
21:18 7.9 7.8 99 1003.7 1.6 WSW 1.6 0.0 4.4
21:20 7.9 7.8 99 1003.7 0.7 WSW 1.6 0.0 4.4
21:22 7.9 7.8 99 1003.7 0.7 WSW 1.6 0.8 4.5
21:23 7.9 7.8 99 1003.7 0.0 WSW 1.6 0.8 4.5
21:24 7.8 7.7 99 1003.6 0.7 WSW 1.6 0.8 4.5
21:25 7.9 7.8 99 1003.6 1.6 WSW 1.6 0.8 4.5
21:26 7.9 7.8 99 1003.4 0.7 WSW 1.6 0.8 4.5
21:28 7.9 7.8 99 1003.5 0.7 WSW 1.6 0.0 4.5
21:29 7.9 7.8 99 1003.5 0.7 WSW 1.6 0.0 4.5
21:30 7.9 7.8 99 1003.5 0.0 WSW 1.6 0.0 4.5
21:31 7.9 7.8 99 1003.4 0.7 WSW 1.6 0.0 4.5
21:32 7.9 7.8 99 1003.3 0.7 WSW 1.6 0.0 4.5
21:33 7.9 7.8 99 1003.4 0.7 WSW 1.6 0.0 4.5
21:34 7.9 7.8 99 1003.1 1.6 WSW 1.6 0.0 4.5
21:36 7.9 7.8 99 1003.1 0.0 WSW 1.6 0.8 4.5
21:37 7.9 7.8 99 1003.0 0.7 WSW 1.6 0.8 4.5
21:38 7.9 7.8 99 1003.2 0.7 WSW 1.6 0.8 4.5
21:39 7.9 7.8 99 1003.1 0.0 WSW 1.6 0.8 4.5
21:40 7.9 7.8 99 1002.9 1.6 WSW 1.6 0.8 4.5
21:41 7.9 7.8 99 1003.0 1.6 WSW 1.6 0.0 4.5
21:42 7.9 7.8 99 1003.0 0.7 WSW 1.6 0.0 4.5
21:44 7.9 7.8 99 1002.8 2.2 WSW 2.2 0.0 4.5
21:45 7.9 7.8 99 1002.8 2.2 WSW 2.2 0.0 4.5
21:46 7.9 7.8 99 1002.9 2.2 WSW 2.2 0.0 4.5
21:47 7.9 7.8 99 1002.9 3.1 WSW 3.1 0.0 4.6
21:48 7.9 7.8 99 1002.7 2.2 WSW 3.1 0.8 4.6
21:49 7.9 7.8 99 1002.8 2.2 WSW 3.1 0.8 4.6
21:50 7.9 7.8 99 1002.8 2.2 WSW 3.1 0.8 4.6
21:52 7.9 7.8 99 1002.8 3.1 WSW 3.1 0.8 4.6
21:53 7.9 7.8 99 1002.8 2.2 WSW 3.1 0.0 4.6
21:54 7.9 7.8 99 1002.7 2.2 S 3.1 0.0 4.6
21:55 7.9 7.8 99 1002.8 3.1 S 3.1 0.0 4.6
21:56 7.9 7.8 99 1002.6 2.2 S 3.1 0.0 4.6
21:57 7.9 7.8 99 1002.7 2.2 S 3.1 0.0 4.6
21:58 7.9 7.8 99 1002.7 3.1 N 3.1 0.0 4.6
21:59 7.9 7.8 99 1002.6 2.2 N 3.1 0.0 4.7
22:00 7.9 7.8 99 1002.7 2.2 N 3.1 0.8 4.7
22:02 7.9 7.8 99 1002.7 2.2 N 3.1 0.8 4.7
22:03 7.9 7.8 99 1002.7 2.2 N 3.1 0.8 4.7
22:04 7.9 7.8 99 1002.7 2.2 N 3.1 0.8 4.7
22:05 7.9 7.8 99 1002.8 2.2 N 3.1 0.0 4.7
22:06 8.0 7.9 99 1002.6 3.1 N 3.1 0.0 4.7
22:07 8.0 7.9 99 1002.5 2.2 N 3.1 0.0 4.7
22:09 8.0 7.9 99 1002.7 2.2 N 3.1 0.0 4.7
22:10 7.9 7.8 99 1002.7 2.2 N 3.1 0.0 4.7
22:12 8.0 7.9 99 1002.7 1.6 N 3.1 0.0 4.7
22:14 8.0 7.9 99 1002.9 1.6 N 3.1 0.8 4.7
22:15 8.0 7.9 99 1002.8 1.6 N 3.1 0.8 4.7
22:17 8.0 7.9 99 1002.9 0.7 N 2.2 0.8 4.7
22:18 8.0 7.9 99 1002.8 1.6 N 2.2 0.0 4.7
22:20 8.0 7.9 99 1002.8 2.2 N 2.2 0.0 4.7
22:21 8.0 7.9 99 1002.7 1.6 N 2.2 0.0 4.7
22:23 8.0 7.9 99 1002.7 1.6 N 3.1 0.0 4.7
22:24 8.0 7.9 99 1002.6 1.6 N 3.1 0.0 4.7
22:25 8.0 7.9 99 1002.7 1.6 N 3.1 0.0 4.7
22:26 8.0 7.9 99 1002.7 1.6 N 3.1 0.0 4.7
22:27 8.0 7.9 99 1002.8 0.7 N 3.1 0.0 4.7
22:28 8.0 7.9 99 1002.8 1.6 N 3.1 0.0 4.7
22:30 8.0 7.9 99 1002.7 0.7 N 3.1 0.8 4.8
22:31 8.1 8.0 99 1002.7 0.7 N 3.1 0.8 4.8
22:32 8.1 8.0 99 1002.7 0.7 N 3.1 0.8 4.8
22:33 8.0 7.9 99 1002.7 0.7 N 2.2 0.8 4.8
22:34 8.0 7.9 99 1002.8 1.6 N 2.2 0.8 4.8
22:35 8.1 8.0 99 1002.7 2.2 N 2.2 0.0 4.8
22:36 8.0 7.9 99 1002.7 2.2 N 2.2 0.0 4.8
22:37 8.1 8.0 99 1002.6 1.6 N 2.2 0.0 4.8
22:39 8.1 8.0 99 1002.7 2.2 N 2.2 0.8 4.9
22:40 8.0 7.9 99 1002.7 1.6 N 2.2 0.8 4.9
22:41 8.1 8.0 99 1002.5 2.2 N 2.2 0.8 4.9
22:42 8.0 7.9 99 1002.6 2.2 N 2.2 0.8 4.9
22:43 8.0 7.9 99 1002.7 3.8 N 3.8 0.8 4.9
22:44 8.1 8.0 99 1002.5 3.1 N 3.8 0.0 4.9
22:45 8.1 8.0 99 1002.5 2.2 N 3.8 0.0 4.9
22:46 8.1 8.0 99 1002.4 3.8 N 3.8 0.0 4.9
22:47 8.1 8.0 99 1002.3 3.8 N 3.8 0.0 4.9
22:49 8.1 8.0 99 1002.4 3.1 N 3.8 0.8 4.9
22:50 8.1 8.0 99 1002.3 3.1 N 3.8 0.8 4.9
22:51 8.1 8.0 99 1002.4 3.8 N 3.8 0.8 4.9
22:52 8.1 8.0 99 1002.3 4.5 N 4.5 0.8 4.9
22:53 8.1 8.0 99 1002.3 3.1 N 4.5 0.8 4.9
22:54 8.1 8.0 99 1002.2 3.1 N 4.5 0.0 4.9
22:56 8.1 8.0 99 1002.2 3.8 N 4.5 0.0 4.9
22:57 8.1 8.0 99 1002.1 3.8 N 4.5 0.0 4.9
22:59 8.1 8.0 99 1002.2 3.8 SE 4.5 0.8 5.0
23:00 8.1 8.0 99 1002.2 3.1 SE 4.5 0.8 5.0
23:01 8.1 8.0 99 1002.2 3.1 SE 4.5 0.8 5.0
23:02 8.1 8.0 99 1002.3 3.1 SE 4.5 0.8 5.0
23:04 8.1 8.0 99 1002.2 3.1 SE 4.5 0.0 5.0
23:05 8.1 8.0 99 1002.1 3.1 SE 4.5 0.0 5.0
23:07 8.1 8.0 99 1002.2 3.8 SE 4.5 0.0 5.0
23:10 8.1 8.0 99 1002.1 3.8 SE 4.5 0.0 5.0
23:12 8.1 8.0 99 1001.9 3.8 SE 4.5 0.0 5.0
23:15 8.1 8.0 99 1001.8 3.8 SE 4.5 0.8 5.0
23:17 8.1 8.0 99 1001.8 3.1 SE 4.5 1.5 5.1
23:19 8.1 8.0 99 1001.7 4.5 SE 4.5 0.8 5.1
23:21 8.1 8.0 99 1001.7 3.8 SE 4.5 0.8 5.1
23:23 8.1 8.0 99 1001.8 5.4 SE 5.4 0.0 5.1
23:24 8.1 8.0 99 1001.8 5.4 SE 5.4 0.0 5.1
23:26 8.1 8.0 99 1001.8 3.8 SE 5.4 0.0 5.1
23:27 8.1 8.0 99 1001.7 5.4 E 5.4 0.0 5.1
23:29 8.1 8.0 99 1001.8 5.4 SE 5.4 0.0 5.1
23:31 8.1 8.0 99 1001.6 5.4 SE 6.0 0.0 5.1
23:32 8.1 8.0 99 1001.7 5.4 SE 6.0 0.0 5.1
23:33 8.1 8.0 99 1001.6 4.5 SE 6.0 0.0 5.1
23:34 8.1 8.0 99 1001.7 6.9 SE 6.9 0.0 5.1
23:36 8.1 8.0 99 1001.5 6.9 SE 6.9 0.0 5.2
23:37 8.1 8.0 99 1001.6 6.0 SE 6.9 0.8 5.2
23:39 8.2 8.1 99 1001.6 6.0 SE 6.9 0.8 5.2
23:42 8.2 8.1 99 1001.5 6.0 SE 6.9 0.8 5.2
23:44 8.1 8.0 99 1001.4 7.6 SE 7.6 1.5 5.3
23:45 8.1 8.0 99 1001.3 6.9 SE 7.6 0.8 5.3
23:46 8.2 8.1 99 1001.2 5.4 SE 7.6 1.5 5.4
23:48 8.2 8.1 99 1001.2 4.5 SE 7.6 1.5 5.4
23:49 8.2 8.1 99 1001.2 7.6 SE 7.6 0.8 5.4
23:51 8.2 8.1 99 1001.4 7.6 SE 7.6 0.8 5.4
23:52 8.2 8.1 99 1001.2 4.5 SE 7.6 0.8 5.4
23:54 8.2 8.1 99 1001.1 6.0 SE 7.6 1.5 5.5
23:56 8.2 8.1 99 1001.2 5.4 SE 7.6 0.8 5.5
23:57 8.2 8.1 99 1001.2 6.9 SE 7.6 0.8 5.5
23:58 8.2 8.1 99 1001.1 5.4 SE 7.6 1.5 5.6

UK - WEATHER STATION TOPSITES - UK World Weather Websites

This is a private weather station, never base important decisions or events on data from this weather station. Although every effort has been made to make the data as accurate as possible it does not meet MetOffice standards. It is proved as a guide of local weather conditions. We accept no liability for any loss which may arise from use of the data.

Copyright © Carnkie Weather 2009 - 2018.